createdAt,value
2022-10-22T00:02:29.445Z,13.47
2022-10-22T00:05:31.109Z,13.46
2022-10-22T00:08:32.811Z,13.45
2022-10-22T00:11:34.444Z,13.43
2022-10-22T00:14:36.049Z,13.43
2022-10-22T00:17:37.886Z,13.42
2022-10-22T00:20:39.657Z,13.41
2022-10-22T00:23:42.521Z,13.40
2022-10-22T00:26:44.177Z,13.37
2022-10-22T00:29:45.739Z,13.38
2022-10-22T00:32:47.280Z,13.37
2022-10-22T00:35:48.793Z,13.36
2022-10-22T00:38:50.588Z,13.37
2022-10-22T00:41:53.541Z,13.37
2022-10-22T00:45:22.904Z,13.35
2022-10-22T00:48:27.464Z,13.35
2022-10-22T00:51:32.059Z,13.36
2022-10-22T00:54:34.596Z,13.37
2022-10-22T00:57:36.888Z,13.38
2022-10-22T01:00:39.010Z,13.37
2022-10-22T01:03:40.872Z,13.38
2022-10-22T01:06:42.518Z,13.40
2022-10-22T01:09:59.980Z,13.40
2022-10-22T01:13:30.639Z,13.40
2022-10-22T01:16:45.839Z,13.41
2022-10-22T01:19:57.844Z,13.42
2022-10-22T01:23:24.177Z,13.41
2022-10-22T01:26:43.930Z,13.39
2022-10-22T01:29:53.512Z,13.37
2022-10-22T01:33:01.068Z,13.38
2022-10-22T01:36:04.631Z,13.34
2022-10-22T01:39:08.694Z,13.38
2022-10-22T01:42:12.799Z,13.38
2022-10-22T01:45:15.093Z,13.39
2022-10-22T01:48:35.045Z,13.38
2022-10-22T01:51:57.817Z,13.38
2022-10-22T01:54:59.290Z,13.39
2022-10-22T01:58:19.609Z,13.40
2022-10-22T02:01:32.642Z,13.40
2022-10-22T02:04:39.314Z,13.36
2022-10-22T02:07:50.888Z,13.36
2022-10-22T02:10:53.220Z,13.34
2022-10-22T02:13:58.613Z,13.34
2022-10-22T02:17:01.239Z,13.33
2022-10-22T02:20:16.256Z,13.32
2022-10-22T02:23:17.873Z,13.29
2022-10-22T02:26:30.749Z,13.26
2022-10-22T02:29:40.832Z,13.24
2022-10-22T02:32:57.908Z,13.23
2022-10-22T02:36:02.416Z,13.19
2022-10-22T02:39:06.638Z,13.16
2022-10-22T02:42:09.732Z,13.13
2022-10-22T02:45:11.379Z,13.10
2022-10-22T02:48:13.012Z,13.04
2022-10-22T02:51:15.126Z,13.07
2022-10-22T02:54:16.724Z,13.05
2022-10-22T02:57:18.436Z,13.01
2022-10-22T03:00:21.177Z,12.99
2022-10-22T03:03:22.953Z,12.99
2022-10-22T03:09:30.964Z,12.94
2022-10-22T03:12:32.512Z,12.93
2022-10-22T03:15:34.067Z,12.87
2022-10-22T03:18:35.856Z,12.88
2022-10-22T03:21:53.088Z,12.86
2022-10-22T03:24:58.432Z,12.84
2022-10-22T03:28:07.448Z,12.83
2022-10-22T03:31:09.480Z,12.77
2022-10-22T03:34:13.361Z,12.76
2022-10-22T03:37:14.994Z,12.76
2022-10-22T03:40:17.101Z,12.74
2022-10-22T03:43:18.750Z,12.66
2022-10-22T03:46:20.478Z,12.69
2022-10-22T03:49:22.032Z,12.67
2022-10-22T03:52:23.571Z,12.71
2022-10-22T03:55:25.555Z,12.68
2022-10-22T03:58:27.089Z,12.62
2022-10-22T04:01:30.432Z,12.62
2022-10-22T04:04:32.016Z,12.60
2022-10-22T04:07:33.544Z,12.56
2022-10-22T04:10:35.563Z,12.58
2022-10-22T04:13:37.929Z,12.56
2022-10-22T04:16:41.105Z,12.52
2022-10-22T04:19:42.613Z,12.49
2022-10-22T04:22:44.173Z,12.44
2022-10-22T04:25:45.723Z,12.42
2022-10-22T04:28:48.690Z,12.44
2022-10-22T04:31:50.233Z,12.44
2022-10-22T04:34:51.758Z,12.44
2022-10-22T04:37:54.909Z,12.42
2022-10-22T04:40:56.464Z,12.39
2022-10-22T04:43:58.801Z,12.38
2022-10-22T04:47:00.504Z,12.33
2022-10-22T04:50:02.016Z,12.36
2022-10-22T04:53:03.544Z,12.34
2022-10-22T04:56:16.848Z,12.31
2022-10-22T04:59:18.384Z,12.32
2022-10-22T05:02:19.900Z,12.31
2022-10-22T05:05:21.497Z,12.27
2022-10-22T05:08:23.001Z,12.27
2022-10-22T05:11:28.381Z,12.25
2022-10-22T05:14:30.005Z,12.24
2022-10-22T05:17:31.518Z,12.22
2022-10-22T05:20:33.045Z,12.21
2022-10-22T05:23:34.604Z,12.20
2022-10-22T05:26:36.160Z,12.20
2022-10-22T05:29:37.807Z,12.20
2022-10-22T05:32:39.330Z,12.20
2022-10-22T05:35:43.210Z,12.19
2022-10-22T05:38:48.513Z,12.18
2022-10-22T05:41:50.049Z,12.17
2022-10-22T05:44:51.635Z,12.17
2022-10-22T05:47:53.177Z,12.16
2022-10-22T05:50:54.758Z,12.12
2022-10-22T05:53:58.699Z,12.10
2022-10-22T05:57:00.340Z,12.07
2022-10-22T06:00:02.181Z,12.06
2022-10-22T06:03:06.135Z,12.06
2022-10-22T06:06:44.458Z,12.04
2022-10-22T06:09:47.686Z,12.04
2022-10-22T06:12:49.621Z,12.01
2022-10-22T06:15:53.492Z,12.04
2022-10-22T06:18:55.011Z,12.03
2022-10-22T06:21:56.641Z,12.06
2022-10-22T06:24:58.164Z,12.07
2022-10-22T06:27:59.752Z,12.10
2022-10-22T06:31:02.225Z,12.12
2022-10-22T06:34:11.003Z,12.12
2022-10-22T06:37:13.858Z,12.11
2022-10-22T06:40:16.397Z,12.13
2022-10-22T06:43:17.923Z,12.11
2022-10-22T06:46:21.186Z,12.16
2022-10-22T06:49:22.702Z,12.13
2022-10-22T06:52:24.522Z,12.16
2022-10-22T06:55:29.217Z,12.16
2022-10-22T06:58:30.746Z,12.18
2022-10-22T07:01:34.286Z,12.17
2022-10-22T07:04:36.343Z,12.19
2022-10-22T07:07:37.878Z,12.20
2022-10-22T07:10:39.522Z,12.25
2022-10-22T07:13:41.566Z,12.28
2022-10-22T07:16:43.379Z,12.31
2022-10-22T07:19:48.397Z,12.38
2022-10-22T07:22:52.727Z,12.44
2022-10-22T07:29:01.221Z,12.56
2022-10-22T07:32:02.827Z,12.60
2022-10-22T07:35:04.901Z,12.64
2022-10-22T07:38:08.045Z,12.71
2022-10-22T07:41:10.627Z,12.75
2022-10-22T07:44:12.154Z,12.82
2022-10-22T07:47:13.706Z,12.85
2022-10-22T07:50:16.529Z,12.89
2022-10-22T07:53:18.622Z,12.93
2022-10-22T07:56:20.269Z,12.95
2022-10-22T07:59:21.857Z,13.00
2022-10-22T08:02:23.677Z,13.07
2022-10-22T08:05:25.386Z,13.11
2022-10-22T08:08:30.464Z,13.16
2022-10-22T08:11:33.549Z,13.21
2022-10-22T08:14:35.663Z,13.25
2022-10-22T08:17:37.245Z,13.22
2022-10-22T08:20:38.881Z,13.32
2022-10-22T08:23:40.582Z,13.37
2022-10-22T08:26:42.502Z,13.41
2022-10-22T08:29:44.110Z,13.47
2022-10-22T08:32:46.065Z,13.50
2022-10-22T08:35:49.673Z,13.51
2022-10-22T08:38:51.205Z,13.53
2022-10-22T08:42:06.242Z,13.59
2022-10-22T08:45:26.170Z,13.62
2022-10-22T08:48:48.238Z,13.65
2022-10-22T08:51:50.980Z,13.68
2022-10-22T08:54:56.088Z,13.74
2022-10-22T08:58:16.095Z,13.75
2022-10-22T09:01:34.016Z,13.76
2022-10-22T09:04:50.227Z,13.77
2022-10-22T09:07:53.164Z,13.73
2022-10-22T09:11:03.595Z,13.78
2022-10-22T09:14:06.253Z,13.81
2022-10-22T09:17:13.399Z,13.82
2022-10-22T09:20:28.519Z,13.83
2022-10-22T09:23:58.651Z,13.85
2022-10-22T09:27:01.002Z,13.86
2022-10-22T09:30:02.718Z,13.90
2022-10-22T09:33:10.017Z,13.94
2022-10-22T09:36:21.327Z,13.99
2022-10-22T09:39:26.699Z,14.03
2022-10-22T09:42:28.250Z,14.10
2022-10-22T09:45:32.105Z,14.15
2022-10-22T09:48:41.451Z,14.20
2022-10-22T09:51:56.644Z,14.26
2022-10-22T09:55:02.713Z,14.32
2022-10-22T09:58:04.826Z,14.39
2022-10-22T10:01:06.382Z,14.39
2022-10-22T10:04:10.888Z,14.47
2022-10-22T10:07:21.366Z,14.43
2022-10-22T10:10:35.159Z,14.57
2022-10-22T10:14:04.776Z,14.59
2022-10-22T10:17:19.928Z,14.57
2022-10-22T10:20:46.983Z,14.60
2022-10-22T10:23:59.394Z,14.62
2022-10-22T10:27:20.378Z,14.67
2022-10-22T10:30:24.097Z,14.70
2022-10-22T10:33:57.713Z,14.74
2022-10-22T10:37:13.351Z,14.77
2022-10-22T10:40:26.395Z,14.83
2022-10-22T10:43:53.822Z,14.88
2022-10-22T10:47:33.919Z,14.90
2022-10-22T10:51:17.490Z,14.91
2022-10-22T10:54:46.670Z,14.97
2022-10-22T10:58:15.846Z,15.03
2022-10-22T11:01:23.458Z,15.12
2022-10-22T11:04:37.112Z,15.17
2022-10-22T11:07:55.954Z,15.27
2022-10-22T11:11:07.956Z,15.32
2022-10-22T11:14:13.527Z,15.37
2022-10-22T11:17:18.036Z,15.43
2022-10-22T11:20:25.554Z,15.45
2022-10-22T11:23:36.999Z,15.43
2022-10-22T11:26:44.800Z,15.43
2022-10-22T11:29:54.070Z,15.44
2022-10-22T11:33:02.019Z,15.44
2022-10-22T11:36:06.963Z,15.36
2022-10-22T11:39:29.185Z,15.33
2022-10-22T11:42:37.337Z,15.41
2022-10-22T11:45:43.004Z,15.43
2022-10-22T11:48:44.634Z,15.47
2022-10-22T11:51:47.362Z,15.53
2022-10-22T11:54:48.930Z,15.59
2022-10-22T11:57:50.488Z,15.68
2022-10-22T12:00:52.411Z,15.75
2022-10-22T12:04:22.018Z,15.81
2022-10-22T12:07:33.685Z,15.84
2022-10-22T12:11:05.767Z,15.89
2022-10-22T12:14:29.529Z,15.95
2022-10-22T12:17:31.264Z,15.97
2022-10-22T12:20:32.781Z,15.99
2022-10-22T12:23:35.526Z,16.04
2022-10-22T12:26:37.306Z,16.08
2022-10-22T12:29:38.838Z,16.12
2022-10-22T12:32:41.583Z,16.16
2022-10-22T12:35:45.414Z,16.18
2022-10-22T12:38:47.674Z,16.22
2022-10-22T12:41:49.334Z,16.25
2022-10-22T12:44:55.841Z,16.27
2022-10-22T12:48:08.666Z,16.30
2022-10-22T12:51:16.301Z,16.31
2022-10-22T12:54:32.060Z,16.34
2022-10-22T12:57:33.636Z,16.40
2022-10-22T13:00:36.137Z,16.44
2022-10-22T13:03:43.445Z,16.49
2022-10-22T13:06:47.517Z,16.53
2022-10-22T13:09:58.994Z,16.59
2022-10-22T13:13:03.322Z,16.60
2022-10-22T13:16:34.166Z,16.59
2022-10-22T13:20:01.618Z,16.61
2022-10-22T13:23:18.688Z,16.65
2022-10-22T13:26:20.514Z,16.64
2022-10-22T13:29:24.138Z,16.62
2022-10-22T13:32:32.207Z,16.62
2022-10-22T13:35:38.346Z,16.58
2022-10-22T13:38:40.170Z,16.64
2022-10-22T13:41:41.724Z,16.62
2022-10-22T13:44:43.382Z,16.67
2022-10-22T13:47:49.413Z,16.71
2022-10-22T13:50:52.303Z,16.73
2022-10-22T13:53:54.243Z,16.73
2022-10-22T13:56:55.855Z,16.74
2022-10-22T13:59:57.371Z,16.77
2022-10-22T14:02:59.750Z,16.79
2022-10-22T14:06:01.466Z,16.82
2022-10-22T14:09:06.266Z,16.85
2022-10-22T14:12:13.608Z,16.87
2022-10-22T14:15:17.472Z,16.88
2022-10-22T14:18:28.949Z,16.89
2022-10-22T14:21:35.887Z,16.90
2022-10-22T14:24:37.402Z,16.92
2022-10-22T14:27:39.359Z,16.93
2022-10-22T14:30:41.401Z,16.91
2022-10-22T14:33:43.032Z,16.95
2022-10-22T14:36:44.703Z,16.94
2022-10-22T14:39:51.651Z,16.93
2022-10-22T14:42:53.233Z,16.95
2022-10-22T14:45:55.466Z,16.97
2022-10-22T14:48:56.985Z,16.97
2022-10-22T14:51:58.526Z,16.98
2022-10-22T14:55:00.053Z,17.01
2022-10-22T14:58:01.597Z,17.04
2022-10-22T15:01:03.717Z,17.04
2022-10-22T15:04:05.572Z,17.03
2022-10-22T15:07:07.239Z,17.02
2022-10-22T15:10:09.538Z,16.99
2022-10-22T15:13:11.141Z,16.97
2022-10-22T15:16:15.589Z,16.94
2022-10-22T15:19:17.144Z,16.90
2022-10-22T15:22:19.461Z,16.83
2022-10-22T15:25:21.046Z,16.82
2022-10-22T15:28:23.709Z,16.76
2022-10-22T15:31:49.195Z,16.72
2022-10-22T15:34:52.814Z,16.70
2022-10-22T15:37:54.347Z,16.66
2022-10-22T15:41:05.460Z,16.65
2022-10-22T15:44:08.698Z,16.59
2022-10-22T15:47:10.801Z,16.55
2022-10-22T15:50:12.329Z,16.48
2022-10-22T15:53:17.843Z,16.42
2022-10-22T15:56:19.638Z,16.35
2022-10-22T15:59:21.278Z,16.30
2022-10-22T16:02:22.799Z,16.23
2022-10-22T16:05:24.411Z,16.17
2022-10-22T16:08:26.558Z,16.08
2022-10-22T16:11:28.940Z,16.00
2022-10-22T16:14:30.541Z,15.91
2022-10-22T16:17:32.047Z,15.77
2022-10-22T16:20:39.110Z,15.69
2022-10-22T16:23:42.347Z,15.56
2022-10-22T16:26:44.104Z,15.46
2022-10-22T16:29:45.643Z,15.37
2022-10-22T16:32:47.482Z,15.24
2022-10-22T16:35:49.057Z,15.12
2022-10-22T16:38:50.899Z,15.01
2022-10-22T16:41:52.510Z,14.91
2022-10-22T16:48:23.949Z,14.71
2022-10-22T16:51:27.644Z,14.63
2022-10-22T16:54:29.329Z,14.52
2022-10-22T16:57:31.926Z,14.42
2022-10-22T17:00:33.885Z,14.32
2022-10-22T17:03:36.342Z,14.22
2022-10-22T17:06:37.935Z,14.13
2022-10-22T17:09:39.711Z,13.97
2022-10-22T17:12:41.844Z,13.93
2022-10-22T17:15:44.555Z,13.83
2022-10-22T17:21:53.723Z,13.63
2022-10-22T17:25:14.064Z,13.56
2022-10-22T17:28:15.595Z,13.47
2022-10-22T17:31:21.995Z,13.39
2022-10-22T17:34:23.524Z,13.29
2022-10-22T17:37:25.122Z,13.22
2022-10-22T17:40:27.036Z,13.15
2022-10-22T17:43:28.705Z,13.08
2022-10-22T17:46:31.927Z,13.00
2022-10-22T17:49:33.553Z,12.93
2022-10-22T17:52:35.718Z,12.86
2022-10-22T17:55:37.307Z,12.79
2022-10-22T17:58:39.038Z,12.73
2022-10-22T18:01:45.585Z,12.67
2022-10-22T18:04:50.716Z,12.61
2022-10-22T18:07:58.481Z,12.53
2022-10-22T18:11:00.260Z,12.47
2022-10-22T18:14:02.044Z,12.35
2022-10-22T18:17:03.679Z,12.34
2022-10-22T18:20:05.737Z,12.29
2022-10-22T18:23:07.457Z,12.24
2022-10-22T18:26:09.157Z,12.20
2022-10-22T18:29:14.894Z,12.15
2022-10-22T18:32:16.693Z,12.12
2022-10-22T18:35:18.246Z,12.07
2022-10-22T18:38:23.581Z,12.02
2022-10-22T18:41:26.439Z,11.98
2022-10-22T18:44:27.969Z,11.96
2022-10-22T18:47:29.453Z,11.93
2022-10-22T18:53:37.780Z,11.85
2022-10-22T18:56:40.716Z,11.85
2022-10-22T18:59:42.297Z,11.74
2022-10-22T19:02:44.119Z,11.77
2022-10-22T19:05:51.649Z,11.72
2022-10-22T19:08:53.248Z,11.66
2022-10-22T19:11:55.023Z,11.61
2022-10-22T19:14:56.549Z,11.59
2022-10-22T19:17:58.064Z,11.54
2022-10-22T19:21:01.391Z,11.49
2022-10-22T19:24:03.409Z,11.46
2022-10-22T19:27:05.018Z,11.44
2022-10-22T19:30:07.104Z,11.37
2022-10-22T19:33:09.615Z,11.36
2022-10-22T19:36:13.325Z,11.32
2022-10-22T19:39:16.453Z,11.31
2022-10-22T19:42:18.013Z,11.29
2022-10-22T19:45:19.599Z,11.23
2022-10-22T19:48:21.132Z,11.21
2022-10-22T19:51:27.030Z,11.18
2022-10-22T19:54:28.568Z,11.14
2022-10-22T19:57:30.202Z,11.10
2022-10-22T20:00:32.134Z,11.06
2022-10-22T20:03:36.207Z,10.99
2022-10-22T20:06:37.785Z,11.03
2022-10-22T20:09:39.320Z,11.00
2022-10-22T20:12:40.842Z,10.98
2022-10-22T20:15:42.604Z,10.93
2022-10-22T20:18:44.265Z,10.90
2022-10-22T20:21:48.362Z,10.83
2022-10-22T20:24:50.379Z,10.87
2022-10-22T20:27:51.925Z,10.86
2022-10-22T20:30:53.515Z,10.84
2022-10-22T20:33:59.651Z,10.82
2022-10-22T20:37:01.211Z,10.80
2022-10-22T20:40:02.923Z,10.79
2022-10-22T20:43:04.490Z,10.77
2022-10-22T20:46:06.143Z,10.75
2022-10-22T20:49:12.014Z,10.74
2022-10-22T20:52:13.680Z,10.73
2022-10-22T20:58:18.100Z,10.69
2022-10-22T21:01:22.172Z,10.69
2022-10-22T21:04:23.790Z,10.68
2022-10-22T21:07:25.440Z,10.65
2022-10-22T21:10:32.287Z,10.64
2022-10-22T21:13:35.171Z,10.63
2022-10-22T21:16:41.188Z,10.61
2022-10-22T21:19:42.776Z,10.57
2022-10-22T21:22:44.592Z,10.55
2022-10-22T21:25:54.757Z,10.55
2022-10-22T21:28:56.327Z,10.60
2022-10-22T21:31:57.842Z,10.55
2022-10-22T21:34:59.351Z,10.62
2022-10-22T21:38:00.902Z,10.60
2022-10-22T21:41:07.767Z,10.59
2022-10-22T21:44:09.355Z,10.58
2022-10-22T21:47:10.868Z,10.55
2022-10-22T21:50:12.409Z,10.53
2022-10-22T21:53:14.006Z,10.53
2022-10-22T21:56:21.939Z,10.49
2022-10-22T21:59:23.472Z,10.50
2022-10-22T22:02:27.396Z,10.47
2022-10-22T22:05:29.327Z,10.47
2022-10-22T22:08:32.551Z,10.45
2022-10-22T22:11:34.213Z,10.44
2022-10-22T22:14:35.758Z,10.42
2022-10-22T22:17:37.315Z,10.39
2022-10-22T22:20:38.845Z,10.37
2022-10-22T22:23:42.646Z,10.35
2022-10-22T22:26:44.218Z,10.33
2022-10-22T22:29:45.742Z,10.31
2022-10-22T22:32:47.290Z,10.29
2022-10-22T22:35:48.820Z,10.20
2022-10-22T22:38:54.098Z,10.24
2022-10-22T22:41:55.632Z,10.22
2022-10-22T22:44:57.943Z,10.21
2022-10-22T22:47:59.468Z,10.18
2022-10-22T22:51:05.661Z,10.16
2022-10-22T22:54:07.245Z,10.12
2022-10-22T22:57:08.807Z,10.10
2022-10-22T23:00:11.041Z,10.07
2022-10-22T23:03:12.571Z,10.05
2022-10-22T23:06:14.641Z,10.04
2022-10-22T23:09:17.633Z,10.01
2022-10-22T23:12:19.230Z,9.98
2022-10-22T23:15:20.775Z,9.94
2022-10-22T23:18:22.299Z,9.91
2022-10-22T23:21:27.660Z,9.87
2022-10-22T23:24:29.938Z,9.84
2022-10-22T23:27:31.459Z,9.79
2022-10-22T23:30:33.016Z,9.75
2022-10-22T23:33:34.924Z,9.71
2022-10-22T23:36:38.106Z,9.68
2022-10-22T23:39:39.642Z,9.66
2022-10-22T23:42:44.754Z,9.62
2022-10-22T23:45:46.284Z,9.59
2022-10-22T23:48:47.886Z,9.55
2022-10-22T23:51:49.435Z,9.56
2022-10-22T23:54:50.962Z,9.55
2022-10-22T23:57:52.512Z,9.52
